createdAt,value
2022-10-02T00:00:53.624Z,79.22
2022-10-02T00:03:31.071Z,78.76
2022-10-02T00:06:18.206Z,77.42
2022-10-02T00:08:47.356Z,75.99
2022-10-02T00:11:13.869Z,76.82
2022-10-02T00:13:58.722Z,77.60
2022-10-02T00:16:38.001Z,78.54
2022-10-02T00:19:04.913Z,81.10
2022-10-02T00:21:40.753Z,80.06
2022-10-02T00:24:15.031Z,84.01
2022-10-02T00:27:06.019Z,85.09
2022-10-02T00:29:41.336Z,84.93
2022-10-02T00:32:22.502Z,85.04
2022-10-02T00:35:13.334Z,87.45
2022-10-02T00:37:50.244Z,85.75
2022-10-02T00:40:37.826Z,85.83
2022-10-02T00:43:43.678Z,84.70
2022-10-02T00:46:52.284Z,83.03
2022-10-02T00:49:30.744Z,83.11
2022-10-02T00:52:05.537Z,81.45
2022-10-02T00:55:00.626Z,78.28
2022-10-02T00:57:54.518Z,77.08
2022-10-02T01:00:22.136Z,77.09
2022-10-02T01:02:51.338Z,76.97
2022-10-02T01:05:20.181Z,75.73
2022-10-02T01:07:50.845Z,76.62
2022-10-02T01:10:17.835Z,75.73
2022-10-02T01:12:45.112Z,76.79
2022-10-02T01:15:15.271Z,78.31
2022-10-02T01:17:43.079Z,77.36
2022-10-02T01:20:17.369Z,75.54
2022-10-02T01:22:57.337Z,74.16
2022-10-02T01:25:23.964Z,73.71
2022-10-02T01:27:53.310Z,72.90
2022-10-02T01:30:21.338Z,72.47
2022-10-02T01:32:57.888Z,75.50
2022-10-02T01:35:34.143Z,79.92
2022-10-02T01:38:06.946Z,83.23
2022-10-02T01:40:36.819Z,85.33
2022-10-02T01:43:09.904Z,88.35
2022-10-02T01:45:56.264Z,88.69
2022-10-02T01:48:50.901Z,88.79
2022-10-02T01:51:44.435Z,88.48
2022-10-02T01:54:26.170Z,86.44
2022-10-02T01:57:29.434Z,85.83
2022-10-02T02:00:18.700Z,85.46
2022-10-02T02:03:03.669Z,82.25
2022-10-02T02:06:04.140Z,82.49
2022-10-02T02:08:40.302Z,82.14
2022-10-02T02:11:20.457Z,81.96
2022-10-02T02:13:49.833Z,78.95
2022-10-02T02:16:22.539Z,76.84
2022-10-02T02:19:07.270Z,76.03
2022-10-02T02:21:45.318Z,75.85
2022-10-02T02:24:22.335Z,74.75
2022-10-02T02:26:53.445Z,75.08
2022-10-02T02:29:24.747Z,74.03
2022-10-02T02:31:53.787Z,75.23
2022-10-02T02:34:27.696Z,76.50
2022-10-02T02:37:02.519Z,74.76
2022-10-02T02:39:40.624Z,74.31
2022-10-02T02:42:15.614Z,74.39
2022-10-02T02:44:57.588Z,75.30
2022-10-02T02:47:41.462Z,75.33
2022-10-02T02:50:12.666Z,73.81
2022-10-02T02:52:41.991Z,74.47
2022-10-02T02:55:21.371Z,74.81
2022-10-02T02:58:06.249Z,74.04
2022-10-02T03:00:33.315Z,73.19
2022-10-02T03:03:00.008Z,75.37
2022-10-02T03:05:28.784Z,80.70
2022-10-02T03:08:01.052Z,80.66
2022-10-02T03:10:59.094Z,79.30
2022-10-02T03:13:52.932Z,79.13
2022-10-02T03:16:28.361Z,81.98
2022-10-02T03:19:26.691Z,79.50
2022-10-02T03:22:11.642Z,82.63
2022-10-02T03:24:54.725Z,82.68
2022-10-02T03:27:36.960Z,80.24
2022-10-02T03:30:09.746Z,78.10
2022-10-02T03:32:40.804Z,75.66
2022-10-02T03:35:11.701Z,77.12
2022-10-02T03:37:40.951Z,75.35
2022-10-02T03:40:08.334Z,78.16
2022-10-02T03:42:35.707Z,77.42
2022-10-02T03:45:02.975Z,76.80
2022-10-02T03:47:29.570Z,79.81
2022-10-02T03:49:56.173Z,79.21
2022-10-02T03:52:24.296Z,79.73
2022-10-02T03:55:02.469Z,78.29
2022-10-02T03:57:33.377Z,75.90
2022-10-02T04:00:34.842Z,76.80
2022-10-02T04:03:19.795Z,77.57
2022-10-02T04:05:56.438Z,76.22
2022-10-02T04:08:30.076Z,76.56
2022-10-02T04:11:01.877Z,75.21
2022-10-02T04:13:53.153Z,73.25
2022-10-02T04:16:36.335Z,72.96
2022-10-02T04:19:19.941Z,72.73
2022-10-02T04:22:07.046Z,72.04
2022-10-02T04:24:42.763Z,71.71
2022-10-02T04:27:12.092Z,72.67
2022-10-02T04:29:47.746Z,72.99
2022-10-02T04:32:17.340Z,72.43
2022-10-02T04:34:44.181Z,72.51
2022-10-02T04:37:16.510Z,73.56
2022-10-02T04:40:18.374Z,72.48
2022-10-02T04:42:54.081Z,72.04
2022-10-02T04:45:42.418Z,73.06
2022-10-02T04:48:24.204Z,73.02
2022-10-02T04:50:54.111Z,74.39
2022-10-02T04:53:42.657Z,72.90
2022-10-02T04:56:33.593Z,76.31
2022-10-02T04:59:17.244Z,77.85
2022-10-02T05:02:06.831Z,79.15
2022-10-02T05:04:36.539Z,77.60
2022-10-02T05:07:34.192Z,75.43
2022-10-02T05:10:28.122Z,76.47
2022-10-02T05:13:36.875Z,74.94
2022-10-02T05:16:18.290Z,77.03
2022-10-02T05:18:50.675Z,75.15
2022-10-02T05:21:32.436Z,74.43
2022-10-02T05:24:21.058Z,72.50
2022-10-02T05:27:10.376Z,72.23
2022-10-02T05:29:58.515Z,73.55
2022-10-02T05:32:34.341Z,75.43
2022-10-02T05:35:41.057Z,72.83
2022-10-02T05:38:36.285Z,73.37
2022-10-02T05:41:18.295Z,75.25
2022-10-02T05:43:53.776Z,76.48
2022-10-02T05:46:29.541Z,77.21
2022-10-02T05:49:06.528Z,78.43
2022-10-02T05:52:02.379Z,79.51
2022-10-02T05:54:34.083Z,80.44
2022-10-02T05:57:11.977Z,78.74
2022-10-02T06:00:03.601Z,78.34
2022-10-02T06:03:05.421Z,75.18
2022-10-02T06:05:53.549Z,77.10
2022-10-02T06:08:43.731Z,74.99
2022-10-02T06:11:31.864Z,77.44
2022-10-02T06:14:07.029Z,75.30
2022-10-02T06:16:38.157Z,74.48
2022-10-02T06:19:27.312Z,75.31
2022-10-02T06:22:03.975Z,76.36
2022-10-02T06:25:02.583Z,75.45
2022-10-02T06:28:07.391Z,76.04
2022-10-02T06:30:41.441Z,75.60
2022-10-02T06:33:24.215Z,75.01
2022-10-02T06:36:13.801Z,75.13
2022-10-02T06:38:59.033Z,73.71
2022-10-02T06:41:46.751Z,75.29
2022-10-02T06:44:17.590Z,74.76
2022-10-02T06:47:12.108Z,73.31
2022-10-02T06:50:15.904Z,75.85
2022-10-02T06:52:51.176Z,77.44
2022-10-02T06:55:34.885Z,80.00
2022-10-02T06:58:39.260Z,77.13
2022-10-02T07:01:26.955Z,77.47
2022-10-02T07:04:29.100Z,77.35
2022-10-02T07:07:12.510Z,77.60
2022-10-02T07:10:17.564Z,77.58
2022-10-02T07:13:02.296Z,79.51
2022-10-02T07:16:01.013Z,81.90
2022-10-02T07:18:43.953Z,80.15
2022-10-02T07:21:24.103Z,80.32
2022-10-02T07:24:09.068Z,80.46
2022-10-02T07:27:03.592Z,80.99
2022-10-02T07:30:00.845Z,80.51
2022-10-02T07:32:33.469Z,80.23
2022-10-02T07:35:07.903Z,80.63
2022-10-02T07:37:34.468Z,79.09
2022-10-02T07:40:24.743Z,78.72
2022-10-02T07:43:10.237Z,78.45
2022-10-02T07:45:41.639Z,77.87
2022-10-02T07:48:24.964Z,78.66
2022-10-02T07:50:57.587Z,76.99
2022-10-02T07:53:41.557Z,76.36
2022-10-02T07:56:12.820Z,77.21
2022-10-02T07:58:54.824Z,75.19
2022-10-02T08:01:28.151Z,76.15
2022-10-02T08:04:12.450Z,77.02
2022-10-02T08:06:41.083Z,74.97
2022-10-02T08:09:31.706Z,75.09
2022-10-02T08:12:27.263Z,76.38
2022-10-02T08:14:55.929Z,77.28
2022-10-02T08:17:49.870Z,80.46
2022-10-02T08:20:18.090Z,81.70
2022-10-02T08:22:59.160Z,82.89
2022-10-02T08:25:31.834Z,83.79
2022-10-02T08:28:01.702Z,83.75
2022-10-02T08:30:28.683Z,82.47
2022-10-02T08:32:55.465Z,83.35
2022-10-02T08:35:41.119Z,79.96
2022-10-02T08:38:32.575Z,80.66
2022-10-02T08:41:24.006Z,80.23
2022-10-02T08:43:56.347Z,80.02
2022-10-02T08:47:05.106Z,80.28
2022-10-02T08:50:00.879Z,77.73
2022-10-02T08:52:55.713Z,77.51
2022-10-02T08:55:37.735Z,78.26
2022-10-02T08:58:47.357Z,77.66
2022-10-02T09:01:35.387Z,75.44
2022-10-02T09:04:32.510Z,76.53
2022-10-02T09:07:28.044Z,76.12
2022-10-02T09:10:33.696Z,76.59
2022-10-02T09:13:28.744Z,78.47
2022-10-02T09:16:33.100Z,76.65
2022-10-02T09:19:39.997Z,76.83
2022-10-02T09:22:44.109Z,75.93
2022-10-02T09:25:17.434Z,75.98
2022-10-02T09:27:50.248Z,75.53
2022-10-02T09:30:34.014Z,76.59
2022-10-02T09:33:03.325Z,77.07
2022-10-02T09:36:10.934Z,77.08
2022-10-02T09:39:14.780Z,77.09
2022-10-02T09:41:43.987Z,75.38
2022-10-02T09:44:47.841Z,74.07
2022-10-02T09:47:36.218Z,75.18
2022-10-02T09:50:06.044Z,75.17
2022-10-02T09:52:43.153Z,73.46
2022-10-02T09:55:28.535Z,73.46
2022-10-02T09:58:13.098Z,73.32
2022-10-02T10:01:11.570Z,72.07
2022-10-02T10:04:10.644Z,70.73
2022-10-02T10:06:49.384Z,70.59
2022-10-02T10:09:53.612Z,68.66
2022-10-02T10:12:45.033Z,69.73
2022-10-02T10:15:29.462Z,71.16
2022-10-02T10:18:21.046Z,68.54
2022-10-02T10:21:30.693Z,68.90
2022-10-02T10:24:34.564Z,70.65
2022-10-02T10:27:26.752Z,72.35
2022-10-02T10:30:08.513Z,71.32
2022-10-02T10:33:14.167Z,73.39
2022-10-02T10:35:52.736Z,71.28
2022-10-02T10:38:47.043Z,72.16
2022-10-02T10:41:44.583Z,72.72
2022-10-02T10:44:23.203Z,73.07
2022-10-02T10:46:49.735Z,71.36
2022-10-02T10:49:25.399Z,68.98
2022-10-02T10:52:37.092Z,68.08
2022-10-02T10:55:40.537Z,67.65
2022-10-02T10:58:36.616Z,66.47
2022-10-02T11:01:50.603Z,66.82
2022-10-02T11:04:54.236Z,68.43
2022-10-02T11:07:52.064Z,68.44
2022-10-02T11:14:06.863Z,70.55
2022-10-02T11:17:03.707Z,68.18
2022-10-02T11:19:36.390Z,66.68
2022-10-02T11:22:24.710Z,68.47
2022-10-02T11:25:00.242Z,67.40
2022-10-02T11:27:45.339Z,66.74
2022-10-02T11:30:14.924Z,66.27
2022-10-02T11:33:25.900Z,66.50
2022-10-02T11:36:22.491Z,66.34
2022-10-02T11:38:54.890Z,65.11
2022-10-02T11:41:56.766Z,64.63
2022-10-02T11:45:02.196Z,65.62
2022-10-02T11:47:34.809Z,65.87
2022-10-02T11:50:27.819Z,63.48
2022-10-02T11:53:18.550Z,65.59
2022-10-02T11:55:56.324Z,66.89
2022-10-02T11:59:01.460Z,66.25
2022-10-02T12:01:34.244Z,65.82
2022-10-02T12:04:20.979Z,65.61
2022-10-02T12:07:20.067Z,66.61
2022-10-02T12:10:10.939Z,64.98
2022-10-02T12:12:46.617Z,63.69
2022-10-02T12:15:39.640Z,66.42
2022-10-02T12:18:37.191Z,63.61
2022-10-02T12:21:21.812Z,64.71
2022-10-02T12:24:16.106Z,62.84
2022-10-02T12:26:54.785Z,64.43
2022-10-02T12:29:31.616Z,63.76
2022-10-02T12:32:29.009Z,63.67
2022-10-02T12:35:17.428Z,64.17
2022-10-02T12:37:52.917Z,64.05
2022-10-02T12:40:57.087Z,64.05
2022-10-02T12:44:10.846Z,62.30
2022-10-02T12:46:55.269Z,62.88
2022-10-02T12:49:53.555Z,62.70
2022-10-02T12:52:50.114Z,61.78
2022-10-02T12:55:47.793Z,63.59
2022-10-02T12:58:35.210Z,62.40
2022-10-02T13:01:26.576Z,62.58
2022-10-02T13:04:05.024Z,62.69
2022-10-02T13:06:43.629Z,62.74
2022-10-02T13:10:02.686Z,63.05
2022-10-02T13:13:06.578Z,63.08
2022-10-02T13:19:32.238Z,65.24
2022-10-02T13:22:15.501Z,64.44
2022-10-02T13:25:02.592Z,62.88
2022-10-02T13:27:44.027Z,63.43
2022-10-02T13:30:23.096Z,61.61
2022-10-02T13:33:39.545Z,61.77
2022-10-02T13:36:33.766Z,60.57
2022-10-02T13:39:20.049Z,60.24
2022-10-02T13:42:05.149Z,59.94
2022-10-02T13:45:01.279Z,58.20
2022-10-02T13:48:09.048Z,59.08
2022-10-02T13:50:47.830Z,57.98
2022-10-02T13:53:33.380Z,57.56
2022-10-02T13:56:27.733Z,59.13
2022-10-02T13:59:10.965Z,55.82
2022-10-02T14:02:19.209Z,56.70
2022-10-02T14:04:45.736Z,57.20
2022-10-02T14:07:39.784Z,54.50
2022-10-02T14:10:13.223Z,55.63
2022-10-02T14:13:14.425Z,54.82
2022-10-02T14:15:55.730Z,53.91
2022-10-02T14:18:25.305Z,54.63
2022-10-02T14:21:10.704Z,53.13
2022-10-02T14:23:52.560Z,51.81
2022-10-02T14:26:24.989Z,52.44
2022-10-02T14:28:54.410Z,52.37
2022-10-02T14:31:33.188Z,51.18
2022-10-02T14:34:37.090Z,51.72
2022-10-02T14:37:25.177Z,49.80
2022-10-02T14:39:57.203Z,49.32
2022-10-02T14:42:26.703Z,49.71
2022-10-02T14:45:11.503Z,48.27
2022-10-02T14:47:59.543Z,47.62
2022-10-02T14:50:29.185Z,48.94
2022-10-02T14:53:30.398Z,48.44
2022-10-02T14:56:15.386Z,49.22
2022-10-02T14:58:59.977Z,49.83
2022-10-02T15:01:26.866Z,49.96
2022-10-02T15:04:14.762Z,50.83
2022-10-02T15:07:02.618Z,49.16
2022-10-02T15:10:04.810Z,49.51
2022-10-02T15:12:57.372Z,48.91
2022-10-02T15:15:35.565Z,50.45
2022-10-02T15:18:38.957Z,48.89
2022-10-02T15:21:26.848Z,48.52
2022-10-02T15:23:57.840Z,49.22
2022-10-02T15:26:45.762Z,49.16
2022-10-02T15:29:36.933Z,48.05
2022-10-02T15:32:48.478Z,47.90
2022-10-02T15:35:20.901Z,47.39
2022-10-02T15:38:21.277Z,47.17
2022-10-02T15:41:12.086Z,48.11
2022-10-02T15:43:57.809Z,48.63
2022-10-02T15:46:36.245Z,49.05
2022-10-02T15:49:31.041Z,48.52
2022-10-02T15:52:16.528Z,49.57
2022-10-02T15:54:52.337Z,49.61
2022-10-02T15:57:34.027Z,50.25
2022-10-02T16:00:10.011Z,48.92
2022-10-02T16:03:01.759Z,49.15
2022-10-02T16:05:31.079Z,48.79
2022-10-02T16:08:26.738Z,50.14
2022-10-02T16:11:14.434Z,49.73
2022-10-02T16:14:21.220Z,51.89
2022-10-02T16:17:22.002Z,51.58
2022-10-02T16:20:26.320Z,50.57
2022-10-02T16:23:10.618Z,50.85
2022-10-02T16:25:49.138Z,51.12
2022-10-02T16:28:47.491Z,51.62
2022-10-02T16:31:23.285Z,50.49
2022-10-02T16:34:48.216Z,50.15
2022-10-02T16:37:24.843Z,48.98
2022-10-02T16:40:02.878Z,49.58
2022-10-02T16:42:49.513Z,48.13
2022-10-02T16:45:48.236Z,49.15
2022-10-02T16:48:37.018Z,47.98
2022-10-02T16:51:39.526Z,49.77
2022-10-02T16:54:08.984Z,49.19
2022-10-02T16:56:58.752Z,46.76
2022-10-02T16:59:32.270Z,46.46
2022-10-02T17:02:18.633Z,47.81
2022-10-02T17:04:57.956Z,49.78
2022-10-02T17:07:40.761Z,49.97
2022-10-02T17:10:36.567Z,49.71
2022-10-02T17:13:26.419Z,48.83
2022-10-02T17:16:29.393Z,49.06
2022-10-02T17:18:59.809Z,48.33
2022-10-02T17:21:39.449Z,50.16
2022-10-02T17:24:39.354Z,52.68
2022-10-02T17:27:18.023Z,51.12
2022-10-02T17:29:47.488Z,49.82
2022-10-02T17:32:34.089Z,50.03
2022-10-02T17:35:00.689Z,51.04
2022-10-02T17:38:00.049Z,50.89
2022-10-02T17:40:57.194Z,51.23
2022-10-02T17:43:28.366Z,51.28
2022-10-02T17:46:19.103Z,52.29
2022-10-02T17:49:08.604Z,53.19
2022-10-02T17:51:59.561Z,53.48
2022-10-02T17:54:26.129Z,53.05
2022-10-02T17:56:52.664Z,53.05
2022-10-02T17:59:28.044Z,52.44
2022-10-02T18:02:11.950Z,51.79
2022-10-02T18:05:16.021Z,52.99
2022-10-02T18:08:00.832Z,52.47
2022-10-02T18:10:39.485Z,52.64
2022-10-02T18:13:17.953Z,52.46
2022-10-02T18:15:55.899Z,51.95
2022-10-02T18:18:32.745Z,52.82
2022-10-02T18:21:23.089Z,52.14
2022-10-02T18:24:03.408Z,53.46
2022-10-02T18:26:37.914Z,54.93
2022-10-02T18:29:54.638Z,55.07
2022-10-02T18:32:35.893Z,55.63
2022-10-02T18:35:19.434Z,54.10
2022-10-02T18:38:00.874Z,53.88
2022-10-02T18:40:47.518Z,55.75
2022-10-02T18:43:44.982Z,56.20
2022-10-02T18:46:36.095Z,55.08
2022-10-02T18:49:27.558Z,54.51
2022-10-02T18:52:15.523Z,55.34
2022-10-02T18:54:57.186Z,55.85
2022-10-02T18:57:39.939Z,54.95
2022-10-02T19:00:21.456Z,54.84
2022-10-02T19:03:12.168Z,53.66
2022-10-02T19:06:15.982Z,53.50
2022-10-02T19:09:07.430Z,54.02
2022-10-02T19:11:47.889Z,53.96
2022-10-02T19:14:27.721Z,56.60
2022-10-02T19:17:00.923Z,54.46
2022-10-02T19:19:29.418Z,57.38
2022-10-02T19:22:01.253Z,60.27
2022-10-02T19:24:39.122Z,61.00
2022-10-02T19:27:19.313Z,59.16
2022-10-02T19:29:52.505Z,59.21
2022-10-02T19:32:32.189Z,58.99
2022-10-02T19:35:17.319Z,58.01
2022-10-02T19:37:48.444Z,57.42
2022-10-02T19:40:22.218Z,57.85
2022-10-02T19:43:04.455Z,55.77
2022-10-02T19:45:35.766Z,56.06
2022-10-02T19:48:07.020Z,55.63
2022-10-02T19:50:51.559Z,54.67
2022-10-02T19:53:52.542Z,54.21
2022-10-02T19:56:42.598Z,52.85
2022-10-02T19:59:19.466Z,52.51
2022-10-02T20:01:52.293Z,53.66
2022-10-02T20:04:22.895Z,55.10
2022-10-02T20:06:56.026Z,54.48
2022-10-02T20:09:46.884Z,54.03
2022-10-02T20:12:19.977Z,56.70
2022-10-02T20:14:55.421Z,56.47
2022-10-02T20:17:22.602Z,55.60
2022-10-02T20:20:04.770Z,57.26
2022-10-02T20:22:56.575Z,57.20
2022-10-02T20:26:01.386Z,56.88
2022-10-02T20:28:32.414Z,55.94
2022-10-02T20:31:10.370Z,56.21
2022-10-02T20:33:45.310Z,56.83
2022-10-02T20:36:21.536Z,57.84
2022-10-02T20:38:55.501Z,56.91
2022-10-02T20:41:31.060Z,56.64
2022-10-02T20:44:02.236Z,57.78
2022-10-02T20:46:52.889Z,57.29
2022-10-02T20:49:50.292Z,57.04
2022-10-02T20:52:32.989Z,57.54
2022-10-02T20:55:25.262Z,59.21
2022-10-02T20:58:01.126Z,62.01
2022-10-02T21:00:42.875Z,60.57
2022-10-02T21:03:27.694Z,59.81
2022-10-02T21:06:10.544Z,59.62
2022-10-02T21:08:37.083Z,59.75
2022-10-02T21:11:12.442Z,59.05
2022-10-02T21:14:12.723Z,60.87
2022-10-02T21:17:11.599Z,60.89
2022-10-02T21:20:19.559Z,61.11
2022-10-02T21:23:26.555Z,60.86
2022-10-02T21:26:26.083Z,59.11
2022-10-02T21:28:56.100Z,60.43
2022-10-02T21:31:25.350Z,61.44
2022-10-02T21:34:03.968Z,62.75
2022-10-02T21:36:46.502Z,62.89
2022-10-02T21:39:25.370Z,63.29
2022-10-02T21:42:10.505Z,65.37
2022-10-02T21:45:14.304Z,63.68
2022-10-02T21:48:18.288Z,64.55
2022-10-02T21:50:53.981Z,63.10
2022-10-02T21:53:54.246Z,61.93
2022-10-02T21:56:57.187Z,61.35
2022-10-02T21:59:57.601Z,61.84
2022-10-02T22:02:53.398Z,63.28
2022-10-02T22:05:23.071Z,63.48
2022-10-02T22:07:59.258Z,62.74
2022-10-02T22:10:34.827Z,60.60
2022-10-02T22:13:22.491Z,58.81
2022-10-02T22:16:06.057Z,60.60
2022-10-02T22:18:58.934Z,62.55
2022-10-02T22:21:43.812Z,64.89
2022-10-02T22:24:31.848Z,66.61
2022-10-02T22:27:37.281Z,67.46
2022-10-02T22:30:04.980Z,66.15
2022-10-02T22:32:37.208Z,65.13
2022-10-02T22:35:03.777Z,65.74
2022-10-02T22:37:46.350Z,64.65
2022-10-02T22:40:22.964Z,64.51
2022-10-02T22:42:58.615Z,65.31
2022-10-02T22:45:37.313Z,65.71
2022-10-02T22:48:15.756Z,65.60
2022-10-02T22:50:54.223Z,66.13
2022-10-02T22:53:26.486Z,65.05
2022-10-02T22:55:57.395Z,65.20
2022-10-02T22:58:56.070Z,65.33
2022-10-02T23:01:40.803Z,66.64
2022-10-02T23:04:22.823Z,66.85
2022-10-02T23:06:59.748Z,68.27
2022-10-02T23:09:54.301Z,68.70
2022-10-02T23:12:44.500Z,69.81
2022-10-02T23:15:45.262Z,67.63
2022-10-02T23:18:34.695Z,66.87
2022-10-02T23:21:19.410Z,69.38
2022-10-02T23:23:54.920Z,67.96
2022-10-02T23:26:44.660Z,64.88
2022-10-02T23:29:22.117Z,64.16
2022-10-02T23:31:54.900Z,63.47
2022-10-02T23:34:53.552Z,63.38
2022-10-02T23:37:37.988Z,62.64
2022-10-02T23:40:33.038Z,61.97
2022-10-02T23:43:04.980Z,61.19
2022-10-02T23:45:50.868Z,63.36
2022-10-02T23:48:19.058Z,64.62
2022-10-02T23:51:22.880Z,64.07
2022-10-02T23:53:55.115Z,66.49
2022-10-02T23:56:27.518Z,67.20
2022-10-02T23:59:06.088Z,68.20
